메인 페이지
METAR-TAF:

METAR-TAF

공항 :

University of Oklahoma Westheimer Airport

Norman, 오클라호마, 미국

위도: 35-13N, 경도: 097-27W, 고도: 357m

현재 날씨관측

예보는 42분 전, 09:55시(UTC)에 발표되었습니다.
10kt
온도 15°C
습도 94%
기압 1014 hPa
시정: 16.1km
고도 900ft 상공 구름 보통
고도 1900ft 상공 흐림

METAR: KOUN 060955Z AUTO 17010KT 10SM SCT009 OVC019 15/14 A2994 RMK AO2 T01500136

시각: 05:37 (10:37 UTC)

예보

예보는 4 시간 4분 전, 06:33시(UTC)에 발표되었습니다.
예보 대상 시간: 06일 07시부터 07일 06시까지 (UTC)
13kt, 순간 최대 풍속 20kt
시정: 10km
고도 2300ft 상공 흐림
06일 0900시부터 (UTC)
11kt
시정: 8.0km
고도 1200ft 상공 흐림
박무
06일 1500시부터 (UTC)
15kt, 순간 최대 풍속 23kt
시정: 10km
고도 1800ft 상공 흐림
06일 1900시부터 (UTC)
남남서15kt, 순간 최대 풍속 24kt
시정: 10km
고도 4000ft 상공 구름 많음
07일 0200시부터 (UTC)
11kt
시정: 10km
고도 4000ft 상공 구름 보통
고도 25000ft 상공 구름 많음

TAF: KOUN 060633Z 0607/0706 17013G20KT P6SM OVC023 FM060900 18011KT 5SM BR OVC012 FM061500 19015G23KT P6SM OVC018 FM061900 20015G24KT P6SM BKN040 FM070200 18011KT P6SM SCT040 BKN250

4,000개 이상의 공항 관측 자료 및 예보 (METAR 및 TAF 보고).

지도상에서 검색 가능한 기상관측소가 노란 점과 빨간 점으로 표시되어 있습니다.

기상관측소 명을 보려면 표시 위로 마우스를 이동하세요.

날씨 관측과 예보를 보려면 클릭하세요.

지도 변경 : 확대하려면 엑스 표시가 있는 녹색 버튼, 축소하려면 빼기 표시가 있는 녹색 버튼, 다음 페이지의 지도를 보려면 녹색 화살표를 클릭하세요.


METAR-TAF: